createdAt,value
2019-04-22T00:02:10.768Z,6.60
2019-04-22T00:04:49.777Z,5.33
2019-04-22T00:07:30.254Z,10.67
2019-04-22T00:10:09.616Z,4.00
2019-04-22T00:15:03.709Z,4.17
2019-04-22T00:17:45.135Z,5.27
2019-04-22T00:20:11.465Z,5.37
2019-04-22T00:22:38.733Z,5.33
2019-04-22T00:25:13.354Z,4.30
2019-04-22T00:27:48.976Z,4.80
2019-04-22T00:30:18.037Z,4.73
2019-04-22T00:33:06.117Z,6.50
2019-04-22T00:35:38.079Z,7.03
2019-04-22T00:38:11.210Z,5.73
2019-04-22T00:40:39.349Z,9.07
2019-04-22T00:43:16.511Z,7.50
2019-04-22T00:45:44.723Z,4.30
2019-04-22T00:48:21.102Z,4.37
2019-04-22T00:50:55.683Z,5.87
2019-04-22T00:53:22.552Z,6.57
2019-04-22T00:56:10.955Z,6.30
2019-04-22T01:01:15.774Z,6.30
2019-04-22T01:03:50.961Z,5.60
2019-04-22T01:06:17.327Z,5.13
2019-04-22T01:08:53.055Z,6.77
2019-04-22T01:11:24.756Z,9.10
2019-04-22T01:13:53.377Z,5.10
2019-04-22T01:18:48.783Z,10.47
2019-04-22T01:23:55.147Z,17.00
2019-04-22T01:26:20.225Z,10.00
2019-04-22T01:28:50.534Z,10.03
2019-04-22T01:31:15.362Z,9.90
2019-04-22T01:33:47.727Z,7.40
2019-04-22T01:36:33.501Z,6.90
2019-04-22T01:39:03.793Z,9.23
2019-04-22T01:41:48.368Z,13.80
2019-04-22T01:44:29.466Z,5.80
2019-04-22T01:46:47.195Z,7.77
2019-04-22T01:49:19.299Z,7.57
2019-04-22T01:54:22.360Z,5.83
2019-04-22T01:56:48.397Z,7.93
2019-04-22T01:59:12.896Z,8.63
2019-04-22T02:01:52.476Z,6.13
2019-04-22T02:04:35.420Z,7.77
2019-04-22T02:06:57.551Z,6.43
2019-04-22T02:09:31.220Z,8.73
2019-04-22T02:12:03.002Z,5.40
2019-04-22T02:14:34.094Z,7.63
2019-04-22T02:17:05.185Z,5.53
2019-04-22T02:22:04.153Z,7.87
2019-04-22T02:24:39.599Z,6.77
2019-04-22T02:27:13.976Z,6.83
2019-04-22T02:29:43.479Z,7.00
2019-04-22T02:32:21.589Z,7.80
2019-04-22T02:34:56.911Z,6.10
2019-04-22T02:37:21.231Z,7.67
2019-04-22T02:39:47.118Z,7.97
2019-04-22T02:42:14.086Z,7.90
2019-04-22T02:44:53.665Z,7.10
2019-04-22T02:47:36.206Z,6.20
2019-04-22T02:50:01.841Z,5.03
2019-04-22T02:52:35.441Z,6.33
2019-04-22T02:55:03.052Z,7.90
2019-04-22T02:57:35.802Z,6.57
2019-04-22T03:00:07.402Z,6.77
2019-04-22T03:02:43.869Z,6.43
2019-04-22T03:05:13.117Z,7.87
2019-04-22T03:07:47.642Z,7.87
2019-04-22T03:10:12.250Z,7.03
2019-04-22T03:12:33.442Z,9.40
2019-04-22T03:15:07.882Z,8.27
2019-04-22T03:18:04.715Z,7.93
2019-04-22T03:22:47.077Z,8.87
2019-04-22T03:27:42.720Z,6.80
2019-04-22T03:43:09.199Z,12.73
2019-04-22T03:45:32.012Z,6.23
2019-04-22T03:48:04.569Z,5.37
2019-04-22T03:53:14.916Z,6.27
2019-04-22T03:55:37.429Z,6.97
2019-04-22T04:05:50.375Z,7.00
2019-04-22T04:10:45.995Z,7.40
2019-04-22T04:15:57.566Z,7.23
2019-04-22T04:18:26.534Z,6.87
2019-04-22T04:25:57.411Z,7.37
2019-04-22T04:28:46.544Z,5.60
2019-04-22T04:31:09.155Z,8.33
2019-04-22T04:33:35.964Z,6.63
2019-04-22T04:36:02.584Z,7.00
2019-04-22T04:38:43.013Z,5.00
2019-04-22T04:41:06.904Z,8.43
2019-04-22T04:43:35.622Z,8.73
2019-04-22T04:46:10.129Z,6.20
2019-04-22T04:51:15.866Z,6.57
2019-04-22T04:53:33.708Z,8.07
2019-04-22T04:56:33.959Z,13.27
2019-04-22T05:03:49.297Z,6.97
2019-04-22T05:11:32.926Z,6.83
2019-04-22T05:18:55.087Z,6.40
2019-04-22T05:21:16.471Z,5.30
2019-04-22T05:24:00.280Z,11.23
2019-04-22T05:26:28.043Z,9.30
2019-04-22T05:28:52.106Z,6.57
2019-04-22T05:31:24.648Z,8.43
2019-04-22T05:34:01.251Z,4.97
2019-04-22T05:36:28.267Z,7.47
2019-04-22T05:39:00.102Z,7.60
2019-04-22T05:41:32.309Z,7.70
2019-04-22T05:44:04.984Z,6.77
2019-04-22T05:46:28.366Z,8.10
2019-04-22T05:49:09.934Z,6.73
2019-04-22T05:51:38.893Z,5.23
2019-04-22T05:54:13.291Z,6.17
2019-04-22T06:01:52.030Z,9.33
2019-04-22T06:04:11.300Z,6.77
2019-04-22T06:06:37.065Z,7.00
2019-04-22T06:09:12.538Z,8.10
2019-04-22T06:11:55.525Z,5.67
2019-04-22T06:14:18.993Z,7.00
2019-04-22T06:16:53.239Z,6.57
2019-04-22T06:19:21.604Z,6.53
2019-04-22T06:21:49.099Z,6.20
2019-04-22T06:24:31.222Z,7.47
2019-04-22T06:29:25.308Z,7.20
2019-04-22T06:32:22.312Z,5.93
2019-04-22T06:34:28.879Z,6.43
2019-04-22T06:44:36.556Z,4.70
2019-04-22T06:47:10.535Z,6.83
2019-04-22T06:49:35.497Z,4.67
2019-04-22T06:52:14.139Z,5.87
2019-04-22T06:54:40.630Z,5.00
2019-04-22T06:57:25.373Z,6.47
2019-04-22T06:59:49.888Z,5.97
2019-04-22T07:02:16.475Z,5.10
2019-04-22T07:04:47.717Z,5.80
2019-04-22T07:07:12.224Z,4.37
2019-04-22T07:09:46.747Z,6.10
2019-04-22T07:12:18.390Z,6.43
2019-04-22T07:14:48.851Z,7.57
2019-04-22T07:17:24.120Z,7.17
2019-04-22T07:19:47.132Z,6.53
2019-04-22T07:22:26.146Z,4.20
2019-04-22T07:27:40.631Z,7.27
2019-04-22T07:30:03.874Z,4.03
2019-04-22T07:32:55.882Z,4.53
2019-04-22T07:35:03.680Z,5.97
2019-04-22T07:40:02.454Z,5.10
2019-04-22T07:42:36.862Z,5.03
2019-04-22T07:45:25.444Z,4.53
2019-04-22T07:47:38.393Z,5.57
2019-04-22T07:50:22.966Z,5.13
2019-04-22T07:52:41.334Z,4.57
2019-04-22T07:55:05.640Z,4.53
2019-04-22T07:57:44.463Z,5.03
2019-04-22T08:02:52.833Z,5.40
2019-04-22T08:05:22.459Z,4.83
2019-04-22T08:07:52.041Z,6.17
2019-04-22T08:10:29.851Z,4.57
2019-04-22T08:13:05.696Z,4.37
2019-04-22T08:15:26.981Z,6.27
2019-04-22T08:18:01.582Z,7.47
2019-04-22T08:20:30.715Z,4.40
2019-04-22T08:23:04.881Z,7.53
2019-04-22T08:25:33.441Z,6.97
2019-04-22T08:28:06.878Z,6.37
2019-04-22T08:33:09.675Z,4.17
2019-04-22T08:35:52.142Z,5.80
2019-04-22T08:38:11.395Z,4.93
2019-04-22T08:41:10.253Z,6.73
2019-04-22T08:43:21.003Z,5.63
2019-04-22T08:45:54.615Z,4.00
2019-04-22T08:48:15.051Z,4.23
2019-04-22T08:50:48.819Z,4.67
2019-04-22T08:53:26.485Z,6.10
2019-04-22T08:55:56.805Z,4.30
2019-04-22T09:00:56.968Z,5.50
2019-04-22T09:03:27.990Z,6.77
2019-04-22T09:06:04.507Z,3.83
2019-04-22T09:08:32.467Z,5.90
2019-04-22T09:10:57.087Z,4.60
2019-04-22T09:13:31.537Z,5.53
2019-04-22T09:16:05.335Z,4.27
2019-04-22T09:18:34.841Z,5.07
2019-04-22T09:21:15.468Z,3.93
2019-04-22T09:23:38.453Z,4.93
2019-04-22T09:26:08.676Z,6.90
2019-04-22T09:28:37.820Z,4.90
2019-04-22T09:33:38.362Z,3.90
2019-04-22T09:36:16.723Z,4.83
2019-04-22T09:38:41.106Z,5.43
2019-04-22T09:41:14.129Z,3.60
2019-04-22T09:46:14.872Z,3.70
2019-04-22T09:48:50.161Z,5.43
2019-04-22T09:51:18.596Z,4.23
2019-04-22T09:53:54.595Z,4.37
2019-04-22T09:56:23.799Z,5.43
2019-04-22T10:06:36.675Z,4.57
2019-04-22T10:09:12.448Z,6.40
2019-04-22T10:11:32.622Z,5.83
2019-04-22T10:16:45.552Z,7.47
2019-04-22T10:19:04.227Z,8.17
2019-04-22T10:24:09.187Z,7.47
2019-04-22T10:26:39.619Z,6.37
2019-04-22T10:29:10.752Z,5.67
2019-04-22T10:31:43.314Z,5.10
2019-04-22T10:34:00.154Z,5.30
2019-04-22T10:36:21.353Z,4.87
2019-04-22T10:38:52.438Z,5.40
2019-04-22T10:41:22.860Z,3.93
2019-04-22T10:43:52.942Z,5.53
2019-04-22T10:46:24.202Z,5.83
2019-04-22T10:48:54.574Z,7.70
2019-04-22T10:51:24.472Z,8.87
2019-04-22T10:53:55.646Z,7.57
2019-04-22T10:56:25.403Z,5.20
2019-04-22T10:58:56.268Z,4.87
2019-04-22T11:01:25.919Z,8.33
2019-04-22T11:03:55.551Z,3.53
2019-04-22T11:06:25.398Z,6.40
2019-04-22T11:08:59.773Z,3.20
2019-04-22T11:11:41.555Z,3.70
2019-04-22T11:13:58.107Z,3.73
2019-04-22T11:16:27.933Z,3.80
2019-04-22T11:18:57.690Z,3.83
2019-04-22T11:21:27.466Z,6.20
2019-04-22T11:23:58.608Z,8.23
2019-04-22T11:26:28.366Z,6.40
2019-04-22T11:28:59.372Z,4.03
2019-04-22T11:31:30.372Z,7.17
2019-04-22T11:34:00.778Z,4.23
2019-04-22T11:36:30.908Z,4.73
2019-04-22T11:39:03.867Z,5.60
2019-04-22T11:41:33.784Z,4.23
2019-04-22T11:44:05.295Z,4.20
2019-04-22T11:46:35.604Z,5.17
2019-04-22T11:49:05.854Z,4.33
2019-04-22T11:51:36.098Z,4.63
2019-04-22T11:54:07.201Z,6.70
2019-04-22T11:56:37.055Z,7.33
2019-04-22T11:59:06.855Z,4.80
2019-04-22T12:01:37.179Z,4.00
2019-04-22T12:04:07.634Z,4.37
2019-04-22T12:06:37.846Z,3.87
2019-04-22T12:09:10.216Z,5.47
2019-04-22T12:11:40.802Z,6.07
2019-04-22T12:14:11.782Z,5.83
2019-04-22T12:16:41.441Z,3.33
2019-04-22T12:19:11.439Z,3.37
2019-04-22T12:21:41.378Z,3.40
2019-04-22T12:24:11.057Z,4.63
2019-04-22T12:26:42.183Z,3.33
2019-04-22T12:29:13.314Z,5.13
2019-04-22T12:31:43.012Z,4.30
2019-04-22T12:34:13.309Z,6.23
2019-04-22T12:36:44.706Z,5.93
2019-04-22T12:39:15.680Z,8.07
2019-04-22T12:41:46.367Z,4.90
2019-04-22T12:44:16.223Z,7.20
2019-04-22T12:46:46.170Z,3.90
2019-04-22T12:49:16.275Z,5.87
2019-04-22T12:51:47.198Z,3.97
2019-04-22T12:54:17.151Z,3.73
2019-04-22T12:56:47.910Z,4.40
2019-04-22T12:59:19.346Z,4.93
2019-04-22T13:01:49.168Z,3.73
2019-04-22T13:04:21.206Z,7.03
2019-04-22T13:06:50.066Z,5.03
2019-04-22T13:09:21.189Z,3.00
2019-04-22T13:11:51.127Z,4.77
2019-04-22T13:14:21.113Z,5.00
2019-04-22T13:16:51.179Z,6.23
2019-04-22T13:19:22.752Z,5.00
2019-04-22T13:21:52.328Z,3.43
2019-04-22T13:24:21.983Z,3.53
2019-04-22T13:26:52.983Z,3.43
2019-04-22T13:29:23.274Z,4.73
2019-04-22T13:31:53.157Z,8.00
2019-04-22T13:34:31.593Z,3.33
2019-04-22T13:36:54.943Z,3.57
2019-04-22T13:39:25.055Z,2.87
2019-04-22T13:42:01.626Z,3.13
2019-04-22T13:44:26.162Z,2.47
2019-04-22T13:47:17.454Z,4.10
2019-04-22T13:50:03.219Z,3.23
2019-04-22T13:57:20.073Z,2.93
2019-04-22T13:59:40.862Z,2.47
2019-04-22T14:02:22.298Z,2.67
2019-04-22T14:04:52.707Z,2.83
2019-04-22T14:07:23.029Z,3.53
2019-04-22T14:09:54.030Z,4.40
2019-04-22T14:12:24.628Z,3.77
2019-04-22T14:14:56.247Z,2.10
2019-04-22T14:17:26.988Z,3.07
2019-04-22T14:19:56.938Z,4.57
2019-04-22T14:22:26.520Z,3.90
2019-04-22T14:24:56.515Z,4.77
2019-04-22T14:27:38.286Z,2.45
2019-04-22T14:29:57.717Z,7.00
2019-04-22T14:32:30.292Z,4.22
2019-04-22T14:34:58.771Z,5.37
2019-04-22T14:37:29.802Z,3.15
2019-04-22T14:40:00.256Z,4.53
2019-04-22T14:42:52.035Z,3.25
2019-04-22T14:45:30.437Z,3.17
2019-04-22T14:48:03.921Z,3.05
2019-04-22T14:50:25.317Z,3.55
2019-04-22T14:52:58.237Z,3.10
2019-04-22T14:55:15.578Z,2.40
2019-04-22T14:57:43.714Z,3.00
2019-04-22T15:00:15.828Z,2.85
2019-04-22T15:02:47.828Z,6.90
2019-04-22T15:05:18.666Z,3.05
2019-04-22T15:07:50.276Z,4.70
2019-04-22T15:10:22.216Z,3.05
2019-04-22T15:12:56.364Z,5.33
2019-04-22T15:16:03.199Z,4.58
2019-04-22T15:18:46.713Z,4.92
2019-04-22T15:21:20.656Z,3.50
2019-04-22T15:23:51.035Z,3.52
2019-04-22T15:26:22.280Z,4.65
2019-04-22T15:28:53.513Z,4.92
2019-04-22T15:31:24.165Z,2.55
2019-04-22T15:33:54.461Z,3.30
2019-04-22T15:36:26.144Z,3.08
2019-04-22T15:38:57.610Z,3.40
2019-04-22T15:41:28.550Z,3.40
2019-04-22T15:43:59.695Z,2.58
2019-04-22T15:46:30.167Z,2.85
2019-04-22T15:49:00.434Z,2.55
2019-04-22T15:51:31.043Z,3.40
2019-04-22T15:54:01.642Z,3.52
2019-04-22T15:56:32.645Z,4.72
2019-04-22T15:59:15.656Z,6.33
2019-04-22T16:01:37.813Z,3.70
2019-04-22T16:04:08.265Z,3.90
2019-04-22T16:06:38.896Z,6.67
2019-04-22T16:09:11.176Z,2.30
2019-04-22T16:11:42.293Z,5.85
2019-04-22T16:14:15.183Z,3.37
2019-04-22T16:16:46.222Z,2.87
2019-04-22T16:19:17.036Z,4.03
2019-04-22T16:21:55.347Z,3.55
2019-04-22T16:24:38.187Z,3.17
2019-04-22T16:27:16.542Z,3.35
2019-04-22T16:29:47.457Z,3.92
2019-04-22T16:32:19.125Z,3.02
2019-04-22T16:34:49.957Z,3.40
2019-04-22T16:37:20.988Z,3.65
2019-04-22T16:39:52.341Z,2.30
2019-04-22T16:42:31.207Z,2.58
2019-04-22T16:44:55.478Z,3.10
2019-04-22T16:47:25.884Z,3.25
2019-04-22T16:49:57.444Z,4.20
2019-04-22T16:52:32.041Z,5.10
2019-04-22T16:55:03.490Z,3.17
2019-04-22T16:57:33.946Z,3.37
2019-04-22T17:00:04.789Z,5.77
2019-04-22T17:02:50.267Z,3.70
2019-04-22T17:05:38.153Z,2.80
2019-04-22T17:08:10.144Z,4.17
2019-04-22T17:10:41.829Z,2.50
2019-04-22T17:13:17.648Z,3.83
2019-04-22T17:15:45.135Z,3.83
2019-04-22T17:18:19.144Z,4.40
2019-04-22T17:20:50.795Z,4.97
2019-04-22T17:23:21.481Z,4.13
2019-04-22T17:25:52.499Z,4.37
2019-04-22T17:28:23.631Z,3.50
2019-04-22T17:30:54.100Z,5.97
2019-04-22T17:33:24.580Z,4.20
2019-04-22T17:35:55.099Z,3.90
2019-04-22T17:38:33.898Z,5.83
2019-04-22T17:41:11.367Z,3.57
2019-04-22T17:43:54.372Z,4.83
2019-04-22T17:46:40.402Z,6.17
2019-04-22T17:49:33.972Z,4.77
2019-04-22T17:52:16.947Z,7.37
2019-04-22T17:57:26.034Z,2.57
2019-04-22T17:59:53.720Z,3.57
2019-04-22T18:02:25.378Z,2.40
2019-04-22T18:04:46.864Z,2.80
2019-04-22T18:07:37.062Z,5.77
2019-04-22T18:15:11.455Z,2.83
2019-04-22T18:17:41.353Z,2.83
2019-04-22T18:20:07.139Z,2.50
2019-04-22T18:22:36.900Z,3.97
2019-04-22T18:25:07.731Z,3.57
2019-04-22T18:30:17.018Z,3.07
2019-04-22T18:32:50.637Z,2.40
2019-04-22T18:35:20.541Z,3.60
2019-04-22T18:37:53.471Z,3.70
2019-04-22T18:40:30.910Z,3.43
2019-04-22T18:43:06.269Z,3.67
2019-04-22T18:48:02.918Z,5.43
2019-04-22T18:50:53.620Z,3.07
2019-04-22T18:53:34.913Z,3.80
2019-04-22T18:56:16.619Z,3.57
2019-04-22T18:58:39.425Z,3.73
2019-04-22T19:00:57.804Z,3.73
2019-04-22T19:03:32.190Z,3.57
2019-04-22T19:06:31.855Z,3.50
2019-04-22T19:08:55.523Z,7.23
2019-04-22T19:11:27.159Z,15.60
2019-04-22T19:14:40.893Z,39.57
2019-04-22T19:16:36.959Z,81.83
2019-04-22T19:21:36.263Z,87.17
2019-04-22T19:24:07.331Z,103.60
2019-04-22T19:26:50.046Z,24.73
2019-04-22T19:29:16.086Z,62.77
2019-04-22T19:31:48.407Z,49.93
2019-04-22T19:34:16.178Z,24.70
2019-04-22T19:36:51.332Z,13.03
2019-04-22T19:39:19.246Z,24.70
2019-04-22T19:42:04.247Z,7.83
2019-04-22T19:44:29.153Z,13.80
2019-04-22T19:47:18.641Z,9.30
2019-04-22T19:49:38.406Z,13.80
2019-04-22T19:52:24.931Z,14.30
2019-04-22T19:54:37.733Z,15.30
2019-04-22T19:57:03.563Z,10.63
2019-04-22T19:59:42.574Z,7.23
2019-04-22T20:02:30.138Z,48.13
2019-04-22T20:05:23.194Z,39.50
2019-04-22T20:07:41.765Z,115.20
2019-04-22T20:10:22.415Z,129.40
2019-04-22T20:12:50.159Z,31.40
2019-04-22T20:15:22.719Z,36.13
2019-04-22T20:18:19.192Z,39.07
2019-04-22T20:20:32.996Z,46.63
2019-04-22T20:22:57.565Z,32.60
2019-04-22T20:25:33.305Z,43.23
2019-04-22T20:28:07.466Z,37.47
2019-04-22T20:30:39.876Z,41.80
2019-04-22T20:33:08.401Z,8.73
2019-04-22T20:35:43.499Z,17.20
2019-04-22T20:38:21.375Z,6.43
2019-04-22T20:40:50.526Z,26.03
2019-04-22T20:43:29.262Z,23.77
2019-04-22T20:45:57.701Z,15.97
2019-04-22T20:48:22.315Z,11.43
2019-04-22T20:50:58.115Z,6.77
2019-04-22T20:53:36.482Z,37.63
2019-04-22T20:56:05.600Z,58.03
2019-04-22T20:58:38.800Z,51.10
2019-04-22T21:00:59.582Z,66.97
2019-04-22T21:03:31.894Z,46.77
2019-04-22T21:06:07.339Z,93.27
2019-04-22T21:08:47.536Z,10.70
2019-04-22T21:13:54.268Z,19.90
2019-04-22T21:16:26.805Z,11.97
2019-04-22T21:18:52.659Z,33.97
2019-04-22T21:21:32.031Z,11.23
2019-04-22T21:23:58.313Z,13.97
2019-04-22T21:26:33.607Z,12.63
2019-04-22T21:29:07.163Z,20.03
2019-04-22T21:31:43.858Z,8.70
2019-04-22T21:34:10.265Z,15.60
2019-04-22T21:36:48.240Z,13.40
2019-04-22T21:39:15.575Z,4.40
2019-04-22T21:41:47.320Z,4.40
2019-04-22T21:44:18.448Z,6.80
2019-04-22T21:47:03.382Z,4.40
2019-04-22T21:49:29.666Z,7.27
2019-04-22T21:52:01.229Z,5.53
2019-04-22T21:54:31.645Z,4.60
2019-04-22T21:57:27.943Z,4.97
2019-04-22T22:00:09.747Z,25.03
2019-04-22T22:02:33.782Z,13.10
2019-04-22T22:04:55.177Z,11.67
2019-04-22T22:07:21.996Z,9.83
2019-04-22T22:10:12.290Z,45.20
2019-04-22T22:12:42.274Z,24.53
2019-04-22T22:15:16.184Z,29.37
2019-04-22T22:17:46.861Z,12.13
2019-04-22T22:20:14.660Z,27.47
2019-04-22T22:23:20.671Z,25.30
2019-04-22T22:25:23.667Z,42.97
2019-04-22T22:27:47.504Z,14.20
2019-04-22T22:33:05.458Z,11.97
2019-04-22T22:35:35.731Z,14.07
2019-04-22T22:38:02.786Z,7.27
2019-04-22T22:40:23.322Z,6.13
2019-04-22T22:42:53.439Z,4.90
2019-04-22T22:45:32.790Z,6.93
2019-04-22T22:48:21.870Z,12.57
2019-04-22T22:50:43.046Z,5.63
2019-04-22T22:53:29.118Z,7.77
2019-04-22T22:55:53.246Z,27.73
2019-04-22T22:58:27.460Z,31.43
2019-04-22T23:00:56.110Z,28.30
2019-04-22T23:03:48.336Z,36.77
2019-04-22T23:06:03.578Z,20.70
2019-04-22T23:08:38.530Z,10.00
2019-04-22T23:11:15.438Z,12.27
2019-04-22T23:13:42.636Z,16.73
2019-04-22T23:16:04.191Z,27.67
2019-04-22T23:18:23.782Z,46.27
2019-04-22T23:20:57.269Z,38.43
2019-04-22T23:23:44.059Z,72.93
2019-04-22T23:26:44.006Z,33.03
2019-04-22T23:29:27.104Z,17.33
2019-04-22T23:32:04.434Z,40.47
2019-04-22T23:34:41.615Z,24.87
2019-04-22T23:37:39.372Z,27.57
2019-04-22T23:40:17.353Z,19.57
2019-04-22T23:42:44.679Z,18.33
2019-04-22T23:45:25.518Z,10.30
2019-04-22T23:47:41.169Z,15.37
2019-04-22T23:50:24.405Z,10.43
2019-04-22T23:52:59.432Z,11.27
2019-04-22T23:55:32.804Z,15.77
2019-04-22T23:58:02.742Z,17.10
